Time;durP1;ratioP1;P1;durP2;ratioP2;P2;SDS_P1;SDS_P2;PMS_P1;PMS_P2;Temp;Humidity;BMP_temperature;BMP_pressure;BME280_temperature;BME280_humidity;BME280_pressure;Samples;Min_cycle;Max_cycle;Signal;HPM_P1;HPM_P2
2022/05/10 00:00:55;;;;;;;;;;;24.70;42.90;;;;;;5091911;28;19928;-78
2022/05/10 00:03:23;;;;;;;;;;;24.70;42.90;;;;;;5091019;28;20155;-78
2022/05/10 00:05:51;;;;;;;;;;;24.70;42.90;;;;;;5091136;28;20114;-78
2022/05/10 00:08:18;;;;;;;;;;;24.70;42.90;;;;;;5091104;28;20346;-78
2022/05/10 00:10:46;;;;;;;;;;;24.70;42.90;;;;;;5091117;28;20144;-78
2022/05/10 00:13:13;;;;;;;;;;;24.70;42.90;;;;;;5086834;28;20220;-78
2022/05/10 00:15:41;;;;;;;;;;;24.70;42.90;;;;;;5090688;28;20338;-78
2022/05/10 00:18:12;;;;;;;;;;;24.60;42.90;;;;;;5091672;28;19923;-78
2022/05/10 00:20:40;;;;;;;;;;;24.70;43.00;;;;;;5091085;28;19925;-78
2022/05/10 00:23:08;;;;;;;;;;;24.60;42.90;;;;;;5090785;28;19924;-78
2022/05/10 00:25:35;;;;;;;;;;;24.60;42.90;;;;;;5091183;28;19947;-78
2022/05/10 00:28:02;;;;;;;;;;;24.60;42.90;;;;;;5090294;28;20437;-78
2022/05/10 00:30:29;;;;;;;;;;;24.60;42.90;;;;;;5091206;28;19928;-78
2022/05/10 00:32:56;;;;;;;;;;;24.60;42.90;;;;;;5090682;28;19928;-78
2022/05/10 00:35:26;;;;;;;;;;;24.60;42.90;;;;;;5072696;28;19928;-78
2022/05/10 00:37:56;;;;;;;;;;;24.60;42.90;;;;;;5090488;28;19978;-78
2022/05/10 00:40:24;;;;;;;;;;;24.60;42.90;;;;;;5090986;28;19932;-78
2022/05/10 00:42:55;;;;;;;;;;;24.50;42.90;;;;;;5088262;28;19928;-78
2022/05/10 00:45:29;;;;;;;;;;;24.60;42.90;;;;;;5089561;28;19924;-78
2022/05/10 00:48:03;;;;;;;;;;;24.60;42.90;;;;;;5090882;28;19928;-79
2022/05/10 00:50:36;;;;;;;;;;;24.50;42.90;;;;;;5090418;28;19977;-78
2022/05/10 00:53:12;;;;;;;;;;;24.50;42.90;;;;;;5089980;28;19924;-78
2022/05/10 00:55:43;;;;;;;;;;;24.50;42.90;;;;;;5090338;28;19928;-78
2022/05/10 00:58:25;;;;;;;;;;;24.50;42.90;;;;;;5090322;28;19924;-78
2022/05/10 01:00:55;;;;;;;;;;;24.50;43.00;;;;;;5090567;28;19928;-79
2022/05/10 01:03:25;;;;;;;;;;;24.50;42.90;;;;;;5089729;28;19927;-78
2022/05/10 01:06:08;;;;;;;;;;;24.50;43.00;;;;;;5090832;28;19974;-78
2022/05/10 01:08:39;;;;;;;;;;;24.50;43.00;;;;;;5089522;28;19970;-78
2022/05/10 01:11:10;;;;;;;;;;;24.50;43.50;;;;;;5090310;28;19923;-78
2022/05/10 01:13:44;;;;;;;;;;;24.50;42.90;;;;;;5089726;28;20087;-78
2022/05/10 01:16:14;;;;;;;;;;;24.50;42.90;;;;;;5085526;28;19928;-78
2022/05/10 01:18:42;;;;;;;;;;;24.50;42.90;;;;;;5090299;28;19928;-78
2022/05/10 01:21:28;;;;;;;;;;;24.50;42.90;;;;;;5072270;28;19955;-77
2022/05/10 01:24:05;;;;;;;;;;;24.50;42.90;;;;;;5089187;28;19953;-78
2022/05/10 01:26:46;;;;;;;;;;;24.50;42.90;;;;;;5089719;28;19935;-78
2022/05/10 01:29:16;;;;;;;;;;;24.50;42.80;;;;;;5089998;28;19924;-78
2022/05/10 01:31:46;;;;;;;;;;;24.50;42.80;;;;;;5089880;28;19954;-78
2022/05/10 01:34:17;;;;;;;;;;;24.50;43.40;;;;;;5089813;28;19924;-77
2022/05/10 01:36:51;;;;;;;;;;;24.50;42.80;;;;;;5089769;28;20328;-78
2022/05/10 01:39:23;;;;;;;;;;;24.50;42.80;;;;;;5089193;28;20217;-78
2022/05/10 01:48:57;;;;;;;;;;;24.50;42.80;;;;;;5097981;28;19919;-78
2022/05/10 01:51:30;;;;;;;;;;;24.40;42.80;;;;;;5097482;28;19969;-78
2022/05/10 01:53:57;;;;;;;;;;;24.50;42.80;;;;;;5097939;28;19928;-78
2022/05/10 01:56:25;;;;;;;;;;;24.50;42.80;;;;;;5098196;28;19936;-78
2022/05/10 01:58:53;;;;;;;;;;;24.50;42.80;;;;;;5097690;28;19924;-78
2022/05/10 02:01:27;;;;;;;;;;;24.40;42.80;;;;;;5097667;28;19986;-78
2022/05/10 02:04:11;;;;;;;;;;;24.40;43.00;;;;;;5097749;28;19932;-78
2022/05/10 02:06:46;;;;;;;;;;;24.40;42.80;;;;;;5090419;28;19924;-77
2022/05/10 02:09:30;;;;;;;;;;;24.40;42.80;;;;;;5090646;28;19977;-77
2022/05/10 02:12:01;;;;;;;;;;;24.40;42.80;;;;;;5093812;28;20376;-78
2022/05/10 02:14:33;;;;;;;;;;;24.40;42.70;;;;;;5093225;28;19978;-78
2022/05/10 02:17:09;;;;;;;;;;;24.40;42.80;;;;;;5093300;28;19924;-78
2022/05/10 02:20:00;;;;;;;;;;;24.40;42.80;;;;;;5074054;28;19924;-77
2022/05/10 02:22:32;;;;;;;;;;;24.40;42.80;;;;;;5094547;28;20011;-78
2022/05/10 02:25:01;;;;;;;;;;;24.40;42.80;;;;;;5092520;28;19920;-78
2022/05/10 02:27:33;;;;;;;;;;;24.30;42.70;;;;;;5093515;28;19962;-78
2022/05/10 02:30:03;;;;;;;;;;;24.30;42.70;;;;;;5093085;28;20422;-77
2022/05/10 02:38:49;;;;;;;;;;;24.30;42.70;;;;;;5090584;28;19957;-77
2022/05/10 02:41:18;;;;;;;;;;;24.30;42.70;;;;;;5092724;28;19965;-78
2022/05/10 02:43:59;;;;;;;;;;;24.30;42.70;;;;;;5092840;28;20366;-78
2022/05/10 02:46:27;;;;;;;;;;;24.40;42.80;;;;;;5092984;28;19925;-78
2022/05/10 02:48:55;;;;;;;;;;;24.40;42.70;;;;;;5093180;28;20015;-78
2022/05/10 02:51:27;;;;;;;;;;;24.40;42.70;;;;;;5093197;28;19924;-78
2022/05/10 02:53:54;;;;;;;;;;;24.30;42.60;;;;;;5092162;28;19924;-78
2022/05/10 02:56:24;;;;;;;;;;;24.30;42.60;;;;;;5094333;28;19932;-76
2022/05/10 03:02:22;;;;;;;;;;;24.40;42.70;;;;;;5091379;28;19934;-78
2022/05/10 03:04:54;;;;;;;;;;;24.40;42.60;;;;;;5092512;28;19993;-77
2022/05/10 03:07:21;;;;;;;;;;;24.40;42.60;;;;;;5077083;28;19924;-77
2022/05/10 03:09:48;;;;;;;;;;;24.30;42.50;;;;;;5094279;28;20429;-78
2022/05/10 03:15:33;;;;;;;;;;;24.30;42.50;;;;;;5093390;28;20376;-78
2022/05/10 03:18:00;;;;;;;;;;;24.30;42.50;;;;;;5096291;28;19924;-78
2022/05/10 03:20:27;;;;;;;;;;;24.30;42.50;;;;;;5096374;28;20321;-78
2022/05/10 03:22:54;;;;;;;;;;;24.30;42.50;;;;;;5096940;28;19981;-78
2022/05/10 03:28:20;;;;;;;;;;;24.30;42.50;;;;;;5093997;28;19931;-78
2022/05/10 03:30:47;;;;;;;;;;;24.30;42.50;;;;;;5096442;28;19924;-77
2022/05/10 03:33:14;;;;;;;;;;;24.30;42.60;;;;;;5095570;28;20011;-78
2022/05/10 03:35:42;;;;;;;;;;;24.30;42.50;;;;;;5093340;28;19982;-75
2022/05/10 03:41:30;;;;;;;;;;;24.30;42.50;;;;;;5091207;28;19935;-76
2022/05/10 03:43:57;;;;;;;;;;;24.30;42.50;;;;;;5094821;28;19920;-78
2022/05/10 03:46:25;;;;;;;;;;;24.30;42.50;;;;;;5096225;28;19924;-79
2022/05/10 03:48:52;;;;;;;;;;;24.30;42.50;;;;;;5095017;28;19936;-78
2022/05/10 03:51:19;;;;;;;;;;;24.30;42.50;;;;;;5097667;28;19939;-78
2022/05/10 03:57:08;;;;;;;;;;;24.30;42.40;;;;;;5095540;28;20370;-78
2022/05/10 03:59:41;;;;;;;;;;;24.30;42.40;;;;;;5094674;28;19920;-76
2022/05/10 04:02:10;;;;;;;;;;;24.30;42.40;;;;;;5093185;28;19927;-78
2022/05/10 04:04:37;;;;;;;;;;;24.30;42.30;;;;;;5092970;28;20018;-76
2022/05/10 04:07:08;;;;;;;;;;;24.30;42.30;;;;;;5093027;28;20407;-78
2022/05/10 04:09:54;;;;;;;;;;;24.30;42.30;;;;;;5093287;28;20322;-78
2022/05/10 04:15:29;;;;;;;;;;;24.40;42.20;;;;;;5093787;28;19924;-79
2022/05/10 04:17:56;;;;;;;;;;;24.40;42.10;;;;;;5093306;28;19954;-77
2022/05/10 04:20:23;;;;;;;;;;;24.40;42.10;;;;;;5093192;28;20334;-79
2022/05/10 04:22:50;;;;;;;;;;;24.50;42.00;;;;;;5093171;28;19923;-78
2022/05/10 04:28:35;;;;;;;;;;;24.50;41.90;;;;;;5073761;28;20334;-78
2022/05/10 04:31:05;;;;;;;;;;;24.50;41.80;;;;;;5098615;28;19928;-79
2022/05/10 04:33:32;;;;;;;;;;;24.50;41.80;;;;;;5085448;28;19966;-78
2022/05/10 04:35:59;;;;;;;;;;;24.60;41.70;;;;;;5090716;28;20179;-79
2022/05/10 04:38:26;;;;;;;;;;;24.60;41.60;;;;;;5090342;28;19924;-79
2022/05/10 04:43:41;;;;;;;;;;;24.60;41.50;;;;;;5089604;28;19925;-78
2022/05/10 04:46:08;;;;;;;;;;;24.70;41.40;;;;;;5073937;28;19963;-78
2022/05/10 04:48:35;;;;;;;;;;;24.70;41.30;;;;;;5090501;28;19977;-79
2022/05/10 04:51:03;;;;;;;;;;;24.70;41.20;;;;;;5090012;28;19947;-79
2022/05/10 04:53:30;;;;;;;;;;;24.70;41.20;;;;;;5090007;28;20039;-79
2022/05/10 04:55:57;;;;;;;;;;;24.70;41.10;;;;;;5089276;28;19977;-79
2022/05/10 04:58:25;;;;;;;;;;;24.80;41.10;;;;;;5084649;28;19940;-78
2022/05/10 05:00:53;;;;;;;;;;;24.80;41.00;;;;;;5070727;28;19925;-78
2022/05/10 05:03:20;;;;;;;;;;;24.80;40.90;;;;;;5069753;28;20081;-78
2022/05/10 05:05:47;;;;;;;;;;;24.80;40.90;;;;;;5069448;28;19932;-78
2022/05/10 05:08:14;;;;;;;;;;;24.80;40.80;;;;;;5082263;28;19960;-78
2022/05/10 05:10:41;;;;;;;;;;;24.90;40.70;;;;;;5088098;28;20269;-79
2022/05/10 05:13:08;;;;;;;;;;;24.90;40.60;;;;;;5077890;28;20430;-79
2022/05/10 05:15:35;;;;;;;;;;;24.90;40.50;;;;;;5090902;28;20488;-79
2022/05/10 05:18:03;;;;;;;;;;;25.00;40.40;;;;;;5090729;28;19936;-78
2022/05/10 05:27:14;;;;;;;;;;;25.10;40.30;;;;;;5091037;28;19915;-77
2022/05/10 05:33:29;;;;;;;;;;;25.10;40.40;;;;;;5088718;28;20261;-74
2022/05/10 05:43:17;;;;;;;;;;;25.20;40.50;;;;;;5084484;28;20394;-73
2022/05/10 05:45:44;;;;;;;;;;;25.30;40.70;;;;;;5077898;28;19973;-82
2022/05/10 05:51:34;;;;;;;;;;;25.30;40.90;;;;;;5092932;28;19962;-75
2022/05/10 05:57:06;;;;;;;;;;;25.40;41.10;;;;;;5088839;28;19924;-75
2022/05/10 06:00:05;;;;;;;;;;;25.40;41.10;;;;;;5087133;28;19928;-79
2022/05/10 06:02:32;;;;;;;;;;;25.50;41.10;;;;;;5096951;28;20421;-74
2022/05/10 06:05:00;;;;;;;;;;;25.50;41.10;;;;;;5078748;28;19975;-77
2022/05/10 06:07:27;;;;;;;;;;;25.50;41.10;;;;;;5097039;28;20387;-71
2022/05/10 06:09:54;;;;;;;;;;;25.60;41.90;;;;;;5097407;28;19931;-76
2022/05/10 06:12:21;;;;;;;;;;;25.60;41.40;;;;;;5097652;28;19928;-75
2022/05/10 06:14:48;;;;;;;;;;;25.70;41.50;;;;;;5079437;28;19924;-74
2022/05/10 06:17:16;;;;;;;;;;;25.70;41.50;;;;;;5097296;28;19931;-74
2022/05/10 06:19:43;;;;;;;;;;;25.70;41.50;;;;;;5080253;28;19924;-75
2022/05/10 06:22:11;;;;;;;;;;;25.70;41.40;;;;;;5096120;28;19928;-74
2022/05/10 06:24:38;;;;;;;;;;;25.80;41.40;;;;;;5096889;28;19928;-74
2022/05/10 06:27:07;;;;;;;;;;;25.80;41.60;;;;;;5096662;28;19936;-82
2022/05/10 06:29:45;;;;;;;;;;;25.80;41.60;;;;;;5097071;28;19928;-81
2022/05/10 06:36:28;;;;;;;;;;;25.90;41.60;;;;;;5092224;28;19923;-75
2022/05/10 06:38:55;;;;;;;;;;;26.00;41.50;;;;;;5096855;28;19924;-75
2022/05/10 06:41:22;;;;;;;;;;;26.00;41.50;;;;;;5096518;28;19924;-76
2022/05/10 06:43:49;;;;;;;;;;;26.00;41.50;;;;;;5081623;28;20284;-77
2022/05/10 06:49:48;;;;;;;;;;;26.00;41.30;;;;;;5095003;28;19957;-78
2022/05/10 06:52:17;;;;;;;;;;;26.10;41.40;;;;;;5099363;28;19924;-73
2022/05/10 06:54:44;;;;;;;;;;;26.10;41.40;;;;;;5099351;28;19924;-75
2022/05/10 06:57:11;;;;;;;;;;;26.10;41.30;;;;;;5097661;28;21061;-71
2022/05/10 06:59:38;;;;;;;;;;;26.10;41.30;;;;;;5089107;28;19932;-77
2022/05/10 07:06:18;;;;;;;;;;;26.10;41.10;;;;;;5086058;28;20015;-81
2022/05/10 07:12:39;;;;;;;;;;;26.20;41.20;;;;;;5084018;28;19935;-78
2022/05/10 07:15:07;;;;;;;;;;;26.30;41.10;;;;;;5076539;28;20011;-78
2022/05/10 07:18:08;;;;;;;;;;;26.30;41.00;;;;;;5084790;28;19920;-69
2022/05/10 07:20:55;;;;;;;;;;;26.40;40.90;;;;;;5075217;28;19924;-79
2022/05/10 07:27:30;;;;;;;;;;;26.40;40.70;;;;;;5083461;28;19915;-77
2022/05/10 07:33:45;;;;;;;;;;;26.40;40.40;;;;;;5089326;28;20060;-74
2022/05/10 07:36:25;;;;;;;;;;;26.40;40.50;;;;;;5095357;28;19924;-76
2022/05/10 07:53:11;;;;;;;;;;;26.60;40.40;;;;;;5091760;28;19920;-75
2022/05/10 07:58:58;;;;;;;;;;;26.70;40.40;;;;;;5087947;28;19924;-71
2022/05/10 08:01:31;;;;;;;;;;;26.70;40.30;;;;;;5087912;28;19928;-75
2022/05/10 08:07:30;;;;;;;;;;;26.70;40.30;;;;;;5098690;28;19919;-81
2022/05/10 08:09:57;;;;;;;;;;;26.70;40.30;;;;;;5094747;28;19924;-79
2022/05/10 08:12:24;;;;;;;;;;;26.70;40.30;;;;;;5098268;28;19920;-72
2022/05/10 08:15:28;;;;;;;;;;;26.70;40.40;;;;;;5097699;28;19924;-71
2022/05/10 08:17:55;;;;;;;;;;;26.70;40.40;;;;;;5059877;28;19925;-77
2022/05/10 08:20:22;;;;;;;;;;;26.70;40.40;;;;;;5078306;28;19931;-76
2022/05/10 08:26:25;;;;;;;;;;;26.70;40.30;;;;;;5081661;28;20031;-73
2022/05/10 08:28:54;;;;;;;;;;;26.80;40.30;;;;;;5081665;28;20204;-78
2022/05/10 08:35:10;;;;;;;;;;;26.80;40.30;;;;;;5091485;28;19919;-74
2022/05/10 08:38:21;;;;;;;;;;;26.90;40.30;;;;;;5071335;28;19920;-76
2022/05/10 08:41:40;;;;;;;;;;;26.90;40.30;;;;;;5317582;23;20411;-66
2022/05/10 08:44:13;;;;;;;;;;;26.90;40.20;;;;;;5078532;28;19928;-68
2022/05/10 09:00:05;;;;;;;;;;;27.00;40.10;;;;;;4996622;28;19925;-77
2022/05/10 09:13:45;;;;;;;;;;;27.10;39.90;;;;;;5472926;23;20083;-80
2022/05/10 09:16:13;;;;;;;;;;;27.20;40.00;;;;;;5056113;28;20339;-68
2022/05/10 09:18:42;;;;;;;;;;;27.20;39.90;;;;;;5055571;28;19925;-68
2022/05/10 09:21:14;;;;;;;;;;;27.20;39.80;;;;;;5051261;28;19925;-68
2022/05/10 09:27:04;;;;;;;;;;;27.30;39.80;;;;;;5049737;28;20256;-75
2022/05/10 09:29:35;;;;;;;;;;;27.30;39.70;;;;;;5044614;28;19925;-73
2022/05/10 09:39:42;;;;;;;;;;;27.50;39.60;;;;;;5054596;28;20349;-65
2022/05/10 09:42:23;;;;;;;;;;;27.50;39.60;;;;;;5058353;28;19958;-66
2022/05/10 09:44:59;;;;;;;;;;;27.50;39.50;;;;;;5044299;28;20306;-65
2022/05/10 09:47:26;;;;;;;;;;;27.60;39.60;;;;;;5052401;28;19924;-65
2022/05/10 09:49:54;;;;;;;;;;;27.60;39.50;;;;;;5050088;28;19932;-69
2022/05/10 09:52:23;;;;;;;;;;;27.60;39.30;;;;;;5056899;28;20783;-68
2022/05/10 09:54:52;;;;;;;;;;;27.70;39.30;;;;;;5051029;28;20640;-70
2022/05/10 09:57:27;;;;;;;;;;;27.70;39.40;;;;;;5055484;28;19928;-69
2022/05/10 09:59:55;;;;;;;;;;;27.70;39.20;;;;;;5061598;28;19936;-70
2022/05/10 10:02:27;;;;;;;;;;;27.70;39.00;;;;;;5050039;28;19925;-70
2022/05/10 10:04:54;;;;;;;;;;;27.70;38.60;;;;;;5062538;28;19929;-71
2022/05/10 10:07:25;;;;;;;;;;;27.80;38.50;;;;;;5059122;28;19971;-70
2022/05/10 10:09:55;;;;;;;;;;;27.80;38.40;;;;;;5050768;28;19925;-69
2022/05/10 10:12:33;;;;;;;;;;;27.80;38.50;;;;;;5051311;28;19971;-70
2022/05/10 10:15:02;;;;;;;;;;;27.80;38.50;;;;;;5047058;28;19933;-68
2022/05/10 10:17:32;;;;;;;;;;;27.80;38.50;;;;;;5056452;28;19989;-72
2022/05/10 10:20:06;;;;;;;;;;;27.80;38.40;;;;;;5058877;28;19929;-73
2022/05/10 10:22:40;;;;;;;;;;;27.90;38.10;;;;;;5056059;28;20020;-72
2022/05/10 10:25:16;;;;;;;;;;;27.80;37.90;;;;;;5062693;28;19931;-72
2022/05/10 10:27:48;;;;;;;;;;;27.90;37.90;;;;;;5055345;28;19932;-71
2022/05/10 10:30:25;;;;;;;;;;;27.90;37.70;;;;;;5056577;28;20337;-72
2022/05/10 10:32:56;;;;;;;;;;;27.90;37.60;;;;;;5063303;28;19929;-71
2022/05/10 10:35:37;;;;;;;;;;;27.90;37.30;;;;;;5059477;28;19980;-71
2022/05/10 10:38:24;;;;;;;;;;;27.90;37.10;;;;;;5060704;28;20363;-72
2022/05/10 10:41:01;;;;;;;;;;;27.90;37.00;;;;;;5062909;28;19924;-71
2022/05/10 10:43:32;;;;;;;;;;;27.90;37.00;;;;;;5053773;28;19932;-75
2022/05/10 10:46:18;;;;;;;;;;;27.90;37.00;;;;;;5055120;28;20388;-73
2022/05/10 10:48:51;;;;;;;;;;;28.00;37.00;;;;;;5054027;28;19932;-70
2022/05/10 10:51:22;;;;;;;;;;;27.90;37.20;;;;;;5048596;28;19933;-73
2022/05/10 10:53:50;;;;;;;;;;;27.90;37.40;;;;;;5051720;28;19940;-72
2022/05/10 10:56:30;;;;;;;;;;;27.90;37.40;;;;;;5061079;28;19936;-69
2022/05/10 10:59:14;;;;;;;;;;;27.90;37.40;;;;;;5057033;28;19929;-67
2022/05/10 11:01:57;;;;;;;;;;;27.90;37.40;;;;;;5051650;28;19925;-75
2022/05/10 11:04:44;;;;;;;;;;;27.90;37.20;;;;;;5059310;28;20014;-78
2022/05/10 11:07:32;;;;;;;;;;;27.80;37.20;;;;;;5056666;28;20598;-78
2022/05/10 11:10:09;;;;;;;;;;;27.80;37.40;;;;;;5062600;28;19959;-74
2022/05/10 11:12:47;;;;;;;;;;;27.80;37.30;;;;;;5056299;28;19924;-72
2022/05/10 11:15:24;;;;;;;;;;;27.80;37.30;;;;;;5060273;28;20384;-73
2022/05/10 11:18:09;;;;;;;;;;;27.80;37.20;;;;;;5050891;28;19930;-72
2022/05/10 11:20:45;;;;;;;;;;;27.80;37.20;;;;;;5054795;28;19933;-70
2022/05/10 11:23:20;;;;;;;;;;;27.80;37.30;;;;;;5052215;28;19929;-70
2022/05/10 11:26:06;;;;;;;;;;;27.80;37.30;;;;;;5056101;28;20283;-71
2022/05/10 11:28:49;;;;;;;;;;;27.80;37.30;;;;;;5054210;28;19924;-72
2022/05/10 11:31:23;;;;;;;;;;;27.80;37.30;;;;;;5054904;28;20009;-72
2022/05/10 11:34:01;;;;;;;;;;;27.90;37.20;;;;;;5052940;28;19968;-73
2022/05/10 11:36:38;;;;;;;;;;;27.90;37.10;;;;;;5057159;28;20330;-73
2022/05/10 11:39:25;;;;;;;;;;;27.90;36.90;;;;;;5056499;28;20375;-73
2022/05/10 11:42:15;;;;;;;;;;;27.90;36.70;;;;;;5040506;28;20027;-73
2022/05/10 11:45:02;;;;;;;;;;;28.00;36.80;;;;;;5054749;28;19929;-72
2022/05/10 11:47:49;;;;;;;;;;;28.00;37.00;;;;;;5057008;28;19936;-72
2022/05/10 11:50:25;;;;;;;;;;;28.00;37.10;;;;;;5056713;28;19943;-73
2022/05/10 11:53:12;;;;;;;;;;;28.10;37.10;;;;;;5055911;28;19935;-72
2022/05/10 11:55:59;;;;;;;;;;;28.10;37.00;;;;;;5048944;28;20622;-76
2022/05/10 11:58:27;;;;;;;;;;;28.10;37.00;;;;;;5038404;28;19943;-72
2022/05/10 12:00:58;;;;;;;;;;;28.10;37.10;;;;;;5051692;28;19929;-73
2022/05/10 12:03:45;;;;;;;;;;;28.10;37.20;;;;;;5053202;28;19947;-79
2022/05/10 12:06:32;;;;;;;;;;;28.10;37.30;;;;;;5044026;28;19932;-73
2022/05/10 12:09:00;;;;;;;;;;;28.00;37.60;;;;;;5040639;28;19937;-73
2022/05/10 12:11:37;;;;;;;;;;;28.00;37.60;;;;;;5055597;28;20128;-74
2022/05/10 12:22:58;;;;;;;;;;;27.80;36.50;;;;;;5054178;28;20260;-70
2022/05/10 12:25:44;;;;;;;;;;;27.80;36.90;;;;;;5059237;28;19978;-73
2022/05/10 12:28:32;;;;;;;;;;;27.80;37.00;;;;;;5061257;28;19962;-69
2022/05/10 12:30:59;;;;;;;;;;;27.80;37.70;;;;;;5059575;28;19989;-68
2022/05/10 12:33:35;;;;;;;;;;;27.80;37.20;;;;;;5051342;28;20011;-69
2022/05/10 12:36:06;;;;;;;;;;;27.80;37.20;;;;;;5056734;28;20284;-70
2022/05/10 12:38:41;;;;;;;;;;;27.80;37.30;;;;;;5062490;28;20265;-67
2022/05/10 12:41:13;;;;;;;;;;;27.80;37.30;;;;;;5056374;28;20400;-69
2022/05/10 12:44:00;;;;;;;;;;;27.90;37.50;;;;;;5055232;28;19940;-68
2022/05/10 12:46:37;;;;;;;;;;;27.90;37.50;;;;;;5057086;28;19960;-66
2022/05/10 12:49:24;;;;;;;;;;;27.90;37.60;;;;;;5055096;28;19932;-65
2022/05/10 12:52:20;;;;;;;;;;;27.90;37.60;;;;;;5054845;28;19932;-69
2022/05/10 12:54:51;;;;;;;;;;;27.90;37.70;;;;;;5056858;28;19929;-71
2022/05/10 12:57:37;;;;;;;;;;;27.90;37.80;;;;;;5060434;28;20560;-68
2022/05/10 13:00:13;;;;;;;;;;;27.90;37.70;;;;;;5058280;28;20380;-68
2022/05/10 13:02:42;;;;;;;;;;;28.00;37.80;;;;;;5060305;28;19932;-66
2022/05/10 13:05:15;;;;;;;;;;;28.00;37.80;;;;;;5062940;28;19932;-67
2022/05/10 13:08:00;;;;;;;;;;;28.00;37.90;;;;;;5038338;28;19986;-72
2022/05/10 13:10:28;;;;;;;;;;;28.00;37.90;;;;;;5055545;28;19928;-67
2022/05/10 13:13:00;;;;;;;;;;;28.10;38.00;;;;;;5052056;28;19986;-69
2022/05/10 13:15:29;;;;;;;;;;;28.10;38.10;;;;;;5057563;28;21450;-70
2022/05/10 13:17:57;;;;;;;;;;;28.10;38.10;;;;;;5062424;28;20372;-75
2022/05/10 13:20:27;;;;;;;;;;;28.10;38.00;;;;;;5059284;28;19924;-75
2022/05/10 13:22:56;;;;;;;;;;;28.10;37.90;;;;;;5055235;28;19971;-71
2022/05/10 13:25:28;;;;;;;;;;;28.20;37.80;;;;;;5056432;28;20279;-69
2022/05/10 13:28:09;;;;;;;;;;;28.10;37.70;;;;;;5043616;28;19990;-76
2022/05/10 13:30:38;;;;;;;;;;;28.10;37.50;;;;;;5062211;28;20068;-69
2022/05/10 13:33:06;;;;;;;;;;;28.20;37.30;;;;;;5055019;28;19936;-69
2022/05/10 13:35:35;;;;;;;;;;;28.20;37.10;;;;;;5060872;28;20068;-75
2022/05/10 13:38:04;;;;;;;;;;;28.20;36.90;;;;;;5056977;28;19925;-72
2022/05/10 13:40:43;;;;;;;;;;;28.20;36.90;;;;;;5062104;28;19928;-69
2022/05/10 13:43:16;;;;;;;;;;;28.20;36.90;;;;;;5054841;28;19986;-67
2022/05/10 13:45:50;;;;;;;;;;;28.20;36.80;;;;;;5048671;28;19928;-67
2022/05/10 13:48:21;;;;;;;;;;;28.10;36.70;;;;;;5057861;28;20489;-67
2022/05/10 13:50:51;;;;;;;;;;;28.10;36.80;;;;;;5050396;28;19978;-69
2022/05/10 13:53:26;;;;;;;;;;;28.10;36.70;;;;;;5052740;28;19932;-75
2022/05/10 13:55:55;;;;;;;;;;;28.10;36.80;;;;;;5045150;28;19932;-72
2022/05/10 13:58:30;;;;;;;;;;;28.10;36.80;;;;;;5050253;28;19933;-72
2022/05/10 14:00:57;;;;;;;;;;;28.00;36.90;;;;;;5050074;28;19924;-71
2022/05/10 14:03:25;;;;;;;;;;;28.00;37.00;;;;;;5058107;28;19928;-71
2022/05/10 14:05:59;;;;;;;;;;;28.00;36.90;;;;;;5059303;28;19928;-69
2022/05/10 14:08:26;;;;;;;;;;;28.00;37.00;;;;;;5055268;28;20342;-69
2022/05/10 14:10:58;;;;;;;;;;;28.00;37.10;;;;;;5052192;28;19932;-68
2022/05/10 14:13:25;;;;;;;;;;;28.00;37.30;;;;;;5059063;28;19932;-68
2022/05/10 14:15:57;;;;;;;;;;;28.00;37.30;;;;;;5051815;28;20031;-69
2022/05/10 14:18:28;;;;;;;;;;;28.00;37.40;;;;;;5061481;28;19928;-69
2022/05/10 14:21:01;;;;;;;;;;;27.90;37.40;;;;;;5057247;28;20455;-70
2022/05/10 14:23:30;;;;;;;;;;;28.00;37.50;;;;;;5055024;28;19936;-69
2022/05/10 14:26:00;;;;;;;;;;;27.90;37.40;;;;;;5058531;28;19929;-68
2022/05/10 14:28:33;;;;;;;;;;;27.90;37.50;;;;;;5027728;28;20008;-71
2022/05/10 14:31:18;;;;;;;;;;;27.90;37.50;;;;;;5050120;28;20015;-72
2022/05/10 14:33:51;;;;;;;;;;;27.90;37.60;;;;;;5051041;28;20035;-73
2022/05/10 14:36:25;;;;;;;;;;;27.90;37.50;;;;;;5052886;28;19924;-76
2022/05/10 14:38:52;;;;;;;;;;;27.90;37.10;;;;;;5053703;28;19931;-77
2022/05/10 14:41:26;;;;;;;;;;;27.90;36.80;;;;;;5041991;28;19925;-75
2022/05/10 14:43:53;;;;;;;;;;;27.90;36.80;;;;;;5027347;28;19925;-76
2022/05/10 14:46:26;;;;;;;;;;;27.90;36.90;;;;;;5052004;28;19928;-76
2022/05/10 14:48:57;;;;;;;;;;;27.90;37.10;;;;;;5065252;28;19960;-75
2022/05/10 14:51:41;;;;;;;;;;;27.80;37.10;;;;;;5064531;28;19925;-77
2022/05/10 14:54:10;;;;;;;;;;;27.80;37.20;;;;;;5064624;28;19925;-76
2022/05/10 14:56:47;;;;;;;;;;;27.80;37.30;;;;;;5057118;28;19932;-77
2022/05/10 14:59:21;;;;;;;;;;;27.80;37.50;;;;;;5039495;28;19929;-76
2022/05/10 15:01:48;;;;;;;;;;;27.80;37.50;;;;;;5045079;28;19924;-77
2022/05/10 15:04:31;;;;;;;;;;;27.80;37.50;;;;;;5047964;28;19931;-76
2022/05/10 15:06:58;;;;;;;;;;;27.90;37.70;;;;;;5048512;28;19990;-76
2022/05/10 15:09:29;;;;;;;;;;;27.90;37.60;;;;;;5048355;28;19925;-76
2022/05/10 15:14:43;;;;;;;;;;;27.90;37.80;;;;;;5069283;28;19932;-78
2022/05/10 15:17:14;;;;;;;;;;;27.80;37.70;;;;;;5068096;28;19974;-76
2022/05/10 15:19:41;;;;;;;;;;;27.90;37.70;;;;;;5083988;28;20402;-71
2022/05/10 15:22:10;;;;;;;;;;;27.90;37.80;;;;;;5085685;28;19924;-72
2022/05/10 15:24:38;;;;;;;;;;;27.90;38.50;;;;;;5067229;28;20438;-73
2022/05/10 15:27:06;;;;;;;;;;;27.90;39.50;;;;;;5067944;28;20329;-72
2022/05/10 15:29:34;;;;;;;;;;;27.90;39.70;;;;;;5068940;28;20314;-76
2022/05/10 15:32:02;;;;;;;;;;;28.00;38.80;;;;;;5064492;28;20449;-77
2022/05/10 15:34:46;;;;;;;;;;;27.90;38.50;;;;;;5068610;28;20360;-77
2022/05/10 15:37:15;;;;;;;;;;;28.00;39.40;;;;;;5068355;28;19924;-77
2022/05/10 15:39:43;;;;;;;;;;;28.00;39.80;;;;;;5068259;28;19978;-77
2022/05/10 15:42:15;;;;;;;;;;;28.00;39.90;;;;;;5068282;28;19925;-78
2022/05/10 15:44:42;;;;;;;;;;;28.00;39.50;;;;;;5068933;28;19928;-77
2022/05/10 15:47:10;;;;;;;;;;;28.00;38.80;;;;;;5069108;28;19924;-77
2022/05/10 15:49:37;;;;;;;;;;;28.10;38.30;;;;;;5070421;28;19929;-77
2022/05/10 15:52:04;;;;;;;;;;;28.10;37.90;;;;;;5069175;28;20311;-78
2022/05/10 15:54:31;;;;;;;;;;;28.10;38.10;;;;;;5068844;28;19982;-78
2022/05/10 15:56:59;;;;;;;;;;;28.10;37.30;;;;;;5068119;28;19925;-78
2022/05/10 15:59:26;;;;;;;;;;;28.10;37.10;;;;;;5068022;28;19924;-77
2022/05/10 16:01:53;;;;;;;;;;;28.10;36.90;;;;;;5067906;28;19935;-77
2022/05/10 16:04:21;;;;;;;;;;;28.20;36.90;;;;;;5063284;28;20338;-77
2022/05/10 16:06:48;;;;;;;;;;;28.20;36.80;;;;;;5066928;28;20395;-77
2022/05/10 16:09:18;;;;;;;;;;;28.20;36.80;;;;;;5066369;28;20201;-77
2022/05/10 16:11:45;;;;;;;;;;;28.20;36.80;;;;;;5071253;28;20576;-78
2022/05/10 16:14:19;;;;;;;;;;;28.20;36.80;;;;;;5072320;28;19943;-78
2022/05/10 16:16:46;;;;;;;;;;;28.20;36.90;;;;;;5073118;28;20188;-77
2022/05/10 16:19:13;;;;;;;;;;;28.30;37.10;;;;;;5084958;28;19931;-78
2022/05/10 16:21:41;;;;;;;;;;;28.30;37.20;;;;;;5094297;28;19946;-77
2022/05/10 16:24:08;;;;;;;;;;;28.30;37.30;;;;;;5093882;28;20189;-78
2022/05/10 16:32:09;;;;;;;;;;;28.40;37.30;;;;;;5092160;28;19953;-78
2022/05/10 16:34:37;;;;;;;;;;;28.40;37.30;;;;;;5085300;28;19977;-78
2022/05/10 16:37:04;;;;;;;;;;;28.40;37.40;;;;;;5091159;28;19928;-79
2022/05/10 16:39:31;;;;;;;;;;;28.40;37.30;;;;;;5091571;28;19928;-78
2022/05/10 16:41:58;;;;;;;;;;;28.40;37.40;;;;;;5093414;28;19924;-79
2022/05/10 16:44:25;;;;;;;;;;;28.40;37.40;;;;;;5091950;28;20476;-78
2022/05/10 16:46:52;;;;;;;;;;;28.50;37.40;;;;;;5091618;28;19924;-78
2022/05/10 16:49:19;;;;;;;;;;;28.50;37.40;;;;;;5090658;28;19924;-78
2022/05/10 16:51:46;;;;;;;;;;;28.50;37.40;;;;;;5089942;28;20440;-78
2022/05/10 16:54:17;;;;;;;;;;;28.50;37.40;;;;;;5088560;28;19928;-78
2022/05/10 16:56:47;;;;;;;;;;;28.50;37.30;;;;;;5088306;28;20398;-78
2022/05/10 16:59:14;;;;;;;;;;;28.60;37.40;;;;;;5088158;28;20393;-78
2022/05/10 17:01:44;;;;;;;;;;;28.60;37.40;;;;;;5086868;28;20021;-78
2022/05/10 17:04:12;;;;;;;;;;;28.60;37.40;;;;;;5087597;28;19928;-78
2022/05/10 17:06:40;;;;;;;;;;;28.60;37.40;;;;;;5083499;28;19924;-78
2022/05/10 17:09:08;;;;;;;;;;;28.60;37.40;;;;;;5089217;28;19954;-79
2022/05/10 17:11:35;;;;;;;;;;;28.60;37.40;;;;;;5073639;28;19932;-79
2022/05/10 17:14:02;;;;;;;;;;;28.60;37.40;;;;;;5066142;28;20402;-79
2022/05/10 17:16:29;;;;;;;;;;;28.60;37.40;;;;;;5066789;28;19989;-79
2022/05/10 17:18:56;;;;;;;;;;;28.60;37.40;;;;;;5066721;28;19987;-79
2022/05/10 17:21:29;;;;;;;;;;;28.60;37.40;;;;;;5067346;28;19924;-78
2022/05/10 17:23:57;;;;;;;;;;;28.60;37.50;;;;;;5066689;28;19924;-78
2022/05/10 17:26:24;;;;;;;;;;;28.60;37.50;;;;;;5066622;28;20564;-79
2022/05/10 17:29:00;;;;;;;;;;;28.60;37.60;;;;;;5066659;28;20241;-78
2022/05/10 17:31:35;;;;;;;;;;;28.50;37.60;;;;;;5067374;28;20564;-79